THM YBTH-YSSY
Flight info
| Callsign | THM |
|---|---|
| Flight time | 0h 35m |
| Altitude | 7000 |
| Route | BTH DCT KADOM DCT TESAT |
| Aircraft | BE36/L-BDFGLORY/S |
Departure
| Time | 2026-04-24 06:24 |
|---|---|
| Airport | Bathurst Airport (YBTH) |
Arrival
| Time | 2026-04-24 06:59 |
|---|---|
| Airport | Sydney Kingsford Smith International Airport (YSSY) |
| Time | Latitude | Longitude | Altitude | Speed | Heading |
|---|---|---|---|---|---|
| 2026-04-24 06:13 | -33.41381 | 149.65435 | 2429 ft | 0 kts | 354° |
| 2026-04-24 06:14 | -33.41384 | 149.65435 | 2429 ft | 0 kts | 5° |
| 2026-04-24 06:14 | -33.41385 | 149.65435 | 2429 ft | 0 kts | 18° |
| 2026-04-24 06:15 | -33.41387 | 149.65434 | 2427 ft | 2 kts | 6° |
| 2026-04-24 06:15 | -33.41402 | 149.65435 | 2429 ft | 3 kts | 354° |
| 2026-04-24 06:15 | -33.41404 | 149.65435 | 2429 ft | 0 kts | 354° |
| 2026-04-24 06:20 | -33.41389 | 149.65438 | 2427 ft | 11 kts | 31° |
| 2026-04-24 06:20 | -33.41352 | 149.65385 | 2430 ft | 12 kts | 281° |
| 2026-04-24 06:21 | -33.41339 | 149.65287 | 2428 ft | 12 kts | 292° |
| 2026-04-24 06:21 | -33.41265 | 149.65264 | 2424 ft | 13 kts | 353° |
| 2026-04-24 06:21 | -33.41171 | 149.65256 | 2422 ft | 14 kts | 357° |
| 2026-04-24 06:21 | -33.41065 | 149.65247 | 2419 ft | 16 kts | 359° |
| 2026-04-24 06:22 | -33.40949 | 149.65239 | 2415 ft | 17 kts | 355° |
| 2026-04-24 06:22 | -33.40826 | 149.65230 | 2411 ft | 18 kts | 356° |
| 2026-04-24 06:22 | -33.40705 | 149.65218 | 2409 ft | 12 kts | 352° |
| 2026-04-24 06:22 | -33.40674 | 149.65234 | 2409 ft | 0 kts | 86° |
| 2026-04-24 06:23 | -33.40676 | 149.65327 | 2410 ft | 31 kts | 90° |
| 2026-04-24 06:23 | -33.40680 | 149.65682 | 2415 ft | 63 kts | 91° |
| 2026-04-24 06:23 | -33.40700 | 149.66350 | 2519 ft | 91 kts | 94° |
| 2026-04-24 06:23 | -33.40767 | 149.67093 | 2864 ft | 88 kts | 98° |
| 2026-04-24 06:24 | -33.40880 | 149.67793 | 3183 ft | 88 kts | 100° |
| 2026-04-24 06:24 | -33.41015 | 149.68502 | 3563 ft | 82 kts | 105° |
| 2026-04-24 06:24 | -33.41199 | 149.69141 | 3885 ft | 86 kts | 109° |
| 2026-04-24 06:24 | -33.41423 | 149.69845 | 4103 ft | 95 kts | 107° |
| 2026-04-24 06:25 | -33.41652 | 149.70613 | 4366 ft | 100 kts | 107° |
| 2026-04-24 06:25 | -33.41889 | 149.71405 | 4679 ft | 102 kts | 108° |
| 2026-04-24 06:25 | -33.42283 | 149.72114 | 5001 ft | 104 kts | 126° |
| 2026-04-24 06:25 | -33.42737 | 149.72789 | 5305 ft | 104 kts | 124° |
| 2026-04-24 06:26 | -33.43190 | 149.73469 | 5637 ft | 104 kts | 125° |
| 2026-04-24 06:26 | -33.43601 | 149.74171 | 5975 ft | 102 kts | 111° |
| 2026-04-24 06:26 | -33.43915 | 149.74929 | 6309 ft | 102 kts | 115° |
| 2026-04-24 06:26 | -33.44264 | 149.75673 | 6628 ft | 103 kts | 117° |
| 2026-04-24 06:27 | -33.44616 | 149.76417 | 6927 ft | 102 kts | 117° |
| 2026-04-24 06:27 | -33.44998 | 149.77202 | 7037 ft | 120 kts | 117° |
| 2026-04-24 06:27 | -33.45458 | 149.78127 | 7046 ft | 139 kts | 118° |
| 2026-04-24 06:27 | -33.45979 | 149.79170 | 7046 ft | 151 kts | 118° |
| 2026-04-24 06:28 | -33.46533 | 149.80280 | 7040 ft | 158 kts | 119° |
| 2026-04-24 06:28 | -33.47095 | 149.81409 | 7046 ft | 158 kts | 118° |
| 2026-04-24 06:28 | -33.47664 | 149.82554 | 7041 ft | 161 kts | 118° |
| 2026-04-24 06:28 | -33.48243 | 149.83714 | 7038 ft | 164 kts | 118° |
| 2026-04-24 06:29 | -33.48828 | 149.84890 | 7046 ft | 164 kts | 118° |
| 2026-04-24 06:29 | -33.49409 | 149.86067 | 7045 ft | 164 kts | 118° |
| 2026-04-24 06:29 | -33.49993 | 149.87238 | 7041 ft | 163 kts | 118° |
| 2026-04-24 06:29 | -33.50568 | 149.88395 | 7039 ft | 160 kts | 119° |
| 2026-04-24 06:30 | -33.51135 | 149.89542 | 7042 ft | 161 kts | 118° |
| 2026-04-24 06:30 | -33.51709 | 149.90696 | 7043 ft | 162 kts | 118° |
| 2026-04-24 06:30 | -33.52285 | 149.91858 | 7047 ft | 163 kts | 118° |
| 2026-04-24 06:30 | -33.52862 | 149.93023 | 7045 ft | 163 kts | 118° |
| 2026-04-24 06:31 | -33.53444 | 149.94195 | 7044 ft | 163 kts | 119° |
| 2026-04-24 06:31 | -33.54016 | 149.95350 | 7041 ft | 160 kts | 118° |
| 2026-04-24 06:31 | -33.54570 | 149.96470 | 7042 ft | 157 kts | 118° |
| 2026-04-24 06:31 | -33.55129 | 149.97600 | 7047 ft | 159 kts | 118° |
| 2026-04-24 06:32 | -33.55691 | 149.98739 | 7042 ft | 159 kts | 118° |
| 2026-04-24 06:32 | -33.56261 | 149.99887 | 7043 ft | 160 kts | 118° |
| 2026-04-24 06:32 | -33.56832 | 150.01040 | 7052 ft | 162 kts | 118° |
| 2026-04-24 06:32 | -33.57409 | 150.02202 | 7052 ft | 162 kts | 119° |
| 2026-04-24 06:33 | -33.57985 | 150.03370 | 7047 ft | 162 kts | 118° |
| 2026-04-24 06:33 | -33.58559 | 150.04536 | 7051 ft | 163 kts | 119° |
| 2026-04-24 06:33 | -33.59143 | 150.05713 | 7051 ft | 165 kts | 119° |
| 2026-04-24 06:33 | -33.59728 | 150.06895 | 7052 ft | 165 kts | 118° |
| 2026-04-24 06:34 | -33.60313 | 150.08082 | 7051 ft | 165 kts | 118° |
| 2026-04-24 06:34 | -33.60897 | 150.09265 | 7054 ft | 164 kts | 119° |
| 2026-04-24 06:34 | -33.61477 | 150.10443 | 7051 ft | 164 kts | 118° |
| 2026-04-24 06:34 | -33.62058 | 150.11618 | 7054 ft | 164 kts | 119° |
| 2026-04-24 06:35 | -33.62637 | 150.12797 | 7053 ft | 164 kts | 118° |
| 2026-04-24 06:35 | -33.63218 | 150.13972 | 7050 ft | 164 kts | 118° |
| 2026-04-24 06:35 | -33.63799 | 150.15152 | 7006 ft | 167 kts | 118° |
| 2026-04-24 06:35 | -33.64391 | 150.16355 | 6966 ft | 166 kts | 118° |
| 2026-04-24 06:36 | -33.64977 | 150.17542 | 6968 ft | 165 kts | 119° |
| 2026-04-24 06:36 | -33.65560 | 150.18727 | 6970 ft | 164 kts | 118° |
| 2026-04-24 06:36 | -33.66138 | 150.19903 | 6972 ft | 164 kts | 118° |
| 2026-04-24 06:36 | -33.66719 | 150.21083 | 6975 ft | 165 kts | 118° |
| 2026-04-24 06:37 | -33.67304 | 150.22268 | 6974 ft | 165 kts | 118° |
| 2026-04-24 06:37 | -33.67885 | 150.23455 | 6967 ft | 165 kts | 118° |
| 2026-04-24 06:37 | -33.68456 | 150.24621 | 6968 ft | 164 kts | 118° |
| 2026-04-24 06:37 | -33.69043 | 150.25814 | 6972 ft | 164 kts | 118° |
| 2026-04-24 06:38 | -33.69619 | 150.26982 | 6969 ft | 165 kts | 118° |
| 2026-04-24 06:38 | -33.70201 | 150.28166 | 6974 ft | 165 kts | 118° |
| 2026-04-24 06:38 | -33.70782 | 150.29351 | 6967 ft | 164 kts | 118° |
| 2026-04-24 06:38 | -33.71258 | 150.30584 | 6971 ft | 163 kts | 105° |
| 2026-04-24 06:39 | -33.71589 | 150.31888 | 6972 ft | 163 kts | 106° |
| 2026-04-24 06:39 | -33.71943 | 150.33184 | 6968 ft | 163 kts | 107° |
| 2026-04-24 06:39 | -33.72292 | 150.34482 | 6969 ft | 164 kts | 106° |
| 2026-04-24 06:39 | -33.72642 | 150.35788 | 6970 ft | 165 kts | 105° |
| 2026-04-24 06:40 | -33.72778 | 150.37149 | 6958 ft | 164 kts | 88° |
| 2026-04-24 06:40 | -33.72750 | 150.38509 | 6964 ft | 163 kts | 89° |
| 2026-04-24 06:40 | -33.72775 | 150.39875 | 6971 ft | 164 kts | 91° |
| 2026-04-24 06:40 | -33.72811 | 150.41241 | 6964 ft | 164 kts | 91° |
| 2026-04-24 06:41 | -33.72850 | 150.42608 | 6956 ft | 164 kts | 91° |
| 2026-04-24 06:41 | -33.72891 | 150.43994 | 6872 ft | 168 kts | 91° |
| 2026-04-24 06:41 | -33.72932 | 150.45408 | 6776 ft | 171 kts | 91° |
| 2026-04-24 06:41 | -33.72973 | 150.46841 | 6673 ft | 172 kts | 91° |
| 2026-04-24 06:42 | -33.73014 | 150.48282 | 6571 ft | 173 kts | 91° |
| 2026-04-24 06:42 | -33.73053 | 150.49727 | 6472 ft | 173 kts | 91° |
| 2026-04-24 06:42 | -33.73095 | 150.51171 | 6372 ft | 173 kts | 91° |
| 2026-04-24 06:42 | -33.73136 | 150.52615 | 6273 ft | 174 kts | 91° |
| 2026-04-24 06:43 | -33.73176 | 150.54062 | 6172 ft | 172 kts | 91° |
| 2026-04-24 06:43 | -33.73217 | 150.55505 | 6071 ft | 173 kts | 91° |
| 2026-04-24 06:43 | -33.73256 | 150.56956 | 5969 ft | 174 kts | 91° |
| 2026-04-24 06:43 | -33.73297 | 150.58415 | 5871 ft | 175 kts | 91° |
| 2026-04-24 06:44 | -33.73339 | 150.59874 | 5763 ft | 175 kts | 91° |
| 2026-04-24 06:44 | -33.73378 | 150.61342 | 5638 ft | 176 kts | 90° |
| 2026-04-24 06:44 | -33.73415 | 150.62816 | 5513 ft | 177 kts | 91° |
| 2026-04-24 06:44 | -33.73456 | 150.64299 | 5392 ft | 178 kts | 91° |
| 2026-04-24 06:45 | -33.73497 | 150.65784 | 5270 ft | 178 kts | 91° |
| 2026-04-24 06:45 | -33.73536 | 150.67252 | 5146 ft | 178 kts | 91° |
| 2026-04-24 06:45 | -33.73577 | 150.68758 | 5014 ft | 177 kts | 91° |
| 2026-04-24 06:45 | -33.73616 | 150.70234 | 4889 ft | 176 kts | 91° |
| 2026-04-24 06:46 | -33.73654 | 150.71704 | 4758 ft | 176 kts | 91° |
| 2026-04-24 06:46 | -33.73694 | 150.73168 | 4632 ft | 175 kts | 91° |
| 2026-04-24 06:46 | -33.73732 | 150.74633 | 4507 ft | 176 kts | 92° |
| 2026-04-24 06:46 | -33.73770 | 150.76096 | 4375 ft | 175 kts | 91° |
| 2026-04-24 06:47 | -33.73808 | 150.77552 | 4254 ft | 174 kts | 92° |
| 2026-04-24 06:47 | -33.73845 | 150.78989 | 4135 ft | 174 kts | 92° |
| 2026-04-24 06:47 | -33.73882 | 150.80425 | 4008 ft | 170 kts | 91° |
| 2026-04-24 06:47 | -33.73917 | 150.81839 | 3882 ft | 169 kts | 92° |
| 2026-04-24 06:48 | -33.73953 | 150.83248 | 3755 ft | 169 kts | 92° |
| 2026-04-24 06:48 | -33.73990 | 150.84655 | 3630 ft | 169 kts | 92° |
| 2026-04-24 06:48 | -33.74026 | 150.86060 | 3508 ft | 168 kts | 92° |
| 2026-04-24 06:48 | -33.74060 | 150.87469 | 3378 ft | 169 kts | 92° |
| 2026-04-24 06:49 | -33.74096 | 150.88874 | 3253 ft | 168 kts | 93° |
| 2026-04-24 06:49 | -33.74131 | 150.90275 | 3126 ft | 167 kts | 92° |
| 2026-04-24 06:49 | -33.74166 | 150.91671 | 3004 ft | 167 kts | 92° |
| 2026-04-24 06:49 | -33.74200 | 150.93052 | 2959 ft | 163 kts | 92° |
| 2026-04-24 06:50 | -33.74232 | 150.94391 | 2954 ft | 158 kts | 92° |
| 2026-04-24 06:50 | -33.74264 | 150.95702 | 2951 ft | 157 kts | 92° |
| 2026-04-24 06:50 | -33.74295 | 150.97016 | 2950 ft | 157 kts | 93° |
| 2026-04-24 06:50 | -33.74328 | 150.98329 | 2949 ft | 157 kts | 92° |
| 2026-04-24 06:51 | -33.74360 | 150.99638 | 2945 ft | 156 kts | 93° |
| 2026-04-24 06:51 | -33.74507 | 151.00914 | 2952 ft | 156 kts | 113° |
| 2026-04-24 06:51 | -33.75006 | 151.02077 | 2964 ft | 157 kts | 114° |
| 2026-04-24 06:51 | -33.75417 | 151.03298 | 2971 ft | 158 kts | 111° |
| 2026-04-24 06:52 | -33.75826 | 151.04529 | 2968 ft | 158 kts | 111° |
| 2026-04-24 06:52 | -33.76234 | 151.05758 | 2972 ft | 159 kts | 111° |
| 2026-04-24 06:52 | -33.76645 | 151.06984 | 2977 ft | 158 kts | 112° |
| 2026-04-24 06:52 | -33.77055 | 151.08211 | 2977 ft | 158 kts | 111° |
| 2026-04-24 06:53 | -33.77468 | 151.09435 | 2978 ft | 158 kts | 112° |
| 2026-04-24 06:53 | -33.77880 | 151.10662 | 2978 ft | 158 kts | 111° |
| 2026-04-24 06:53 | -33.78298 | 151.11878 | 2976 ft | 157 kts | 111° |
| 2026-04-24 06:53 | -33.78713 | 151.13088 | 2976 ft | 156 kts | 111° |
| 2026-04-24 06:54 | -33.79212 | 151.14239 | 2970 ft | 157 kts | 132° |
| 2026-04-24 06:54 | -33.80217 | 151.14699 | 2972 ft | 162 kts | 180° |
| 2026-04-24 06:54 | -33.81209 | 151.14111 | 2969 ft | 169 kts | 221° |
| 2026-04-24 06:54 | -33.82048 | 151.13287 | 3089 ft | 142 kts | 168° |
| 2026-04-24 06:55 | -33.82968 | 151.13605 | 2874 ft | 145 kts | 131° |
| 2026-04-24 06:55 | -33.83598 | 151.14616 | 2278 ft | 152 kts | 113° |
| 2026-04-24 06:55 | -33.84391 | 151.15223 | 1870 ft | 151 kts | 176° |
| 2026-04-24 06:55 | -33.85473 | 151.15360 | 1358 ft | 144 kts | 153° |
| 2026-04-24 06:56 | -33.86338 | 151.15640 | 1233 ft | 121 kts | 159° |
| 2026-04-24 06:56 | -33.87173 | 151.15745 | 1072 ft | 118 kts | 173° |
| 2026-04-24 06:56 | -33.87958 | 151.15606 | 867 ft | 116 kts | 162° |
| 2026-04-24 06:56 | -33.88612 | 151.15981 | 631 ft | 106 kts | 141° |
| 2026-04-24 06:57 | -33.89322 | 151.16228 | 463 ft | 107 kts | 163° |
| 2026-04-24 06:57 | -33.90004 | 151.16407 | 396 ft | 91 kts | 165° |
| 2026-04-24 06:57 | -33.90615 | 151.16552 | 367 ft | 89 kts | 163° |
| 2026-04-24 06:57 | -33.91224 | 151.16702 | 304 ft | 89 kts | 164° |
| 2026-04-24 06:58 | -33.91803 | 151.16859 | 340 ft | 84 kts | 166° |
| 2026-04-24 06:58 | -33.92406 | 151.17019 | 229 ft | 90 kts | 165° |
| 2026-04-24 06:58 | -33.92954 | 151.17163 | 67 ft | 73 kts | 165° |
| 2026-04-24 06:58 | -33.93387 | 151.17277 | 11 ft | 50 kts | 165° |
| 2026-04-24 06:59 | -33.93493 | 151.17359 | 11 ft | 15 kts | 82° |
| 2026-04-24 06:59 | -33.93479 | 151.17436 | 13 ft | 0 kts | 78° |
| 2026-04-24 07:01 | -33.93478 | 151.17441 | 13 ft | 0 kts | 76° |
| 2026-04-24 07:01 | -33.93476 | 151.17449 | 13 ft | 5 kts | 74° |
| 2026-04-24 07:01 | -33.93506 | 151.17508 | 13 ft | 12 kts | 163° |
| 2026-04-24 07:01 | -33.93598 | 151.17531 | 12 ft | 15 kts | 172° |
| 2026-04-24 07:02 | -33.93696 | 151.17560 | 12 ft | 14 kts | 168° |
| 2026-04-24 07:02 | -33.93792 | 151.17586 | 13 ft | 14 kts | 169° |
| 2026-04-24 07:02 | -33.93872 | 151.17643 | 13 ft | 15 kts | 93° |
| 2026-04-24 07:02 | -33.93846 | 151.17773 | 15 ft | 17 kts | 74° |
| 2026-04-24 07:03 | -33.93812 | 151.17906 | 21 ft | 17 kts | 74° |
| 2026-04-24 07:03 | -33.93779 | 151.18039 | 25 ft | 17 kts | 74° |
| 2026-04-24 07:03 | -33.93747 | 151.18182 | 25 ft | 18 kts | 73° |
| 2026-04-24 07:03 | -33.93690 | 151.18213 | 25 ft | 9 kts | 349° |
| 2026-04-24 07:04 | -33.93626 | 151.18207 | 26 ft | 6 kts | 311° |
| 2026-04-24 07:04 | -33.93625 | 151.18179 | 26 ft | 0 kts | 238° |